Insider Trading activities of Anthem, Inc. insiders. , Part 3

Monthly summaries of insider trading activities (stock purchases, sales, and option exercises) reported by insiders of Anthem, Inc. since 2005 are illustrated in Table 1 and Table 2. Table 1 shows the monthly insider trading data of Anthem, Inc. since year 2005. (See page 1 of this report.) Table 2 shows the detailed insider transactions of Anthem, Inc. since 2005. The reporting company's ticker symbol is ANTM. The reporting company's CIK number is 1156039.
The total value of stock buying since 2005 is $82,000.
The total value of stock sales since 2005 is $759,558,508.
The total value of stock option exercises since 2005 is $323,812,422.


 1   2   3   4 

Table 2. Detailed insider stock purchases, sales, and option exercises of Anthem, Inc. insiders (ANTM) , Part 3
  Trade Date   Insider Name Trade Type     Shares       Price ($)   Value ($)
2009-09-11 Goulet Kenneth R (Pres & CEO Comm and EVP) Option Ex 22,000 30.10 662,200
2009-09-09 Burke Sheila P (Director) Sale 9,920 52.01 515,939
2009-09-09 Burke Sheila P (Director) Option Ex 9,920 19.45 192,944
2009-09-03 Glasscock Larry C (Director) Sale 13,000 53.11 690,430
2009-09-03 Glasscock Larry C (Director) Option Ex 13,000 44.18 574,340
2009-09-02 Cannon John (EVP, GC & Corp. Sec.) Sale 15,380 53.85 828,213
2009-09-02 Cannon John (EVP, GC & Corp. Sec.) Option Ex 15,380 30.10 462,938
2009-08-26 Pisano Jane G (Director) Sale 17,884 55.32 989,342
2009-08-26 Pisano Jane G (Director) Option Ex 9,920 41.03 407,017
2009-08-21 Peru Ramiro G (Director) Sale 39,680 54.81 2,174,860
2009-08-21 Peru Ramiro G (Director) Option Ex 39,680 36.28 1,439,590
2009-08-19 Riegle Donald W Jr (Director) Sale 878 53.03 46,560
2009-08-13 Hill Julie A (Director) Sale 11 52.05 572
2009-08-10 Lewis Randall J (EVP & Chief Compliance Officer) Sale 14,526 51.78 752,156
2009-08-07 Burke Sheila P (Director) Sale 9,920 51.33 509,193
2009-08-07 Burke Sheila P (Director) Option Ex 9,920 13.79 136,796
2009-08-07 Lewis Randall J (EVP & Chief Compliance Officer) Sale 56,667 51.68 2,928,550
2009-08-07 Lewis Randall J (EVP & Chief Compliance Officer) Option Ex 56,667 41.63 2,359,330
2009-05-07 Lewis Dijuana K (Pres & CEO CHS and EVP) Sale 8,456 46.26 391,174
2009-05-05 Burke Sheila P (Director) Sale 9,840 44.43 437,201
2009-05-05 Burke Sheila P (Director) Option Ex 9,840 16.91 166,394
2009-04-28 Bush William H T (Director) Option Ex 3,056 3.75 11,460
2009-03-05 Goulet Kenneth R (Pres & CEO Comm and EVP) Sale 1,751 32.82 57,467
2009-02-10 Burke Sheila P (Director) Sale 10,000 44.63 446,320
2009-02-10 Burke Sheila P (Director) Option Ex 10,000 16.91 169,100
2009-01-30 Goulet Kenneth R (Pres & CEO Comm and EVP) Sale 3,489 41.52 144,880
2008-08-12 Goulet Kenneth R (Pres & CEO Comm and EVP) Sale 3,582 56.08 200,878
2008-07-31 Burke Sheila P (Director) Sale 19,840 53.13 1,054,198
2008-07-31 Burke Sheila P (Director) Option Ex 19,840 16.91 335,494
2008-04-28 Bush William H T (Director) Sale 3,056 50.51 154,343
2008-04-28 Bush William H T (Director) Option Ex 3,056 3.64 11,123
2008-04-25 Burke Sheila P (Director) Sale 4,420 49.59 219,209
2008-04-25 Burke Sheila P (Director) Option Ex 4,420 13.99 61,835
2008-03-14 Peru Ramiro G (Director) Buy 1,000 47.21 47,210
2008-03-13 Burke Sheila P (Director) Sale 3,500 47.70 166,950
2008-03-13 Burke Sheila P (Director) Option Ex 3,500 13.99 48,965
2008-03-11 Glasscock Larry C (Director) Sale 14,000 48.28 675,962
2008-03-11 Glasscock Larry C (Director) Option Ex 14,000 44.18 618,520
2008-02-27 Glasscock Larry C (Director) Sale 28,000 73.96 2,070,936
2008-02-27 Glasscock Larry C (Director) Option Ex 28,000 44.18 1,237,040
2008-02-26 Glasscock Larry C (Director) Sale 28,000 74.23 2,078,580
2008-02-26 Glasscock Larry C (Director) Option Ex 28,000 44.18 1,237,040
2008-02-15 Burke Sheila P (Director) Sale 2,000 74.86 149,720
2008-02-15 Burke Sheila P (Director) Option Ex 2,000 13.99 27,980
2008-02-14 Goulet Kenneth R (Pres & CEO Comm and EVP) Sale 7,500 74.06 555,450
2008-02-14 Goulet Kenneth R (Pres & CEO Comm and EVP) Option Ex 7,500 44.90 336,750
2008-02-06 Glasscock Larry C (Director) Sale 31,113 78.72 2,449,215
2008-02-06 Glasscock Larry C (Director) Option Ex 31,113 35.85 1,115,401
2008-01-22 Rosenblatt Alice F (EVP and Chief Actuary) Sale 2,000 79.82 159,632
2008-01-22 Glasscock Larry C (Director) Sale 31,111 79.35 2,468,657
2008-01-22 Glasscock Larry C (Director) Option Ex 31,111 35.85 1,115,329
2008-01-09 Rosenblatt Alice F (EVP and Chief Actuary) Sale 2,800 88.02 246,442
2008-01-09 Glasscock Larry C (Director) Sale 31,111 88.50 2,753,230
2008-01-09 Glasscock Larry C (Director) Option Ex 31,111 35.85 1,115,329
2007-12-27 Rosenblatt Alice F (EVP and Chief Actuary) Sale 2,800 88.06 246,554
2007-12-27 Glasscock Larry C (Director) Sale 31,111 88.41 2,750,616
2007-12-27 Glasscock Larry C (Director) Option Ex 31,111 35.85 1,115,329
2007-12-14 Nussbaum Samuel R Md (EVP & Chief Medical Officer) Sale 25,000 86.16 2,153,875
2007-12-14 Nussbaum Samuel R Md (EVP & Chief Medical Officer) Option Ex 25,000 35.93 898,250
2007-12-14 Ward Jackie M (Director) Sale 15,438 86.60 1,336,899
2007-12-13 Rosenblatt Alice F (EVP and Chief Actuary) Sale 2,800 85.59 239,640
2007-12-12 Boxer Mark L (Pres & CEO of OT&GS and EVP) Sale 11,710 85.55 1,001,790
2007-12-12 Glasscock Larry C (Director) Sale 31,111 85.08 2,646,923
2007-12-12 Glasscock Larry C (Director) Option Ex 31,111 35.85 1,115,329
2007-12-11 Bayh Susan B (Director) Sale 1,430 86.11 123,130
2007-12-07 Herman Joan E (President & CEO Cons and EVP) Sale 13,562 86.08 1,167,416
2007-12-07 Watts John S Jr (EVP) Sale 19,264 86.50 1,666,336
2007-12-06 Watts John S Jr (EVP) Sale 16,666 85.00 1,416,610
2007-12-06 Watts John S Jr (EVP) Option Ex 16,666 80.81 1,346,779
2007-12-05 Watts John S Jr (EVP) Sale 39,999 83.87 3,354,716
2007-12-05 Watts John S Jr (EVP) Option Ex 39,999 76.59 3,063,523
2007-12-04 Lewis Randall J (EVP & Chief Compliance Officer) Sale 9,080 84.08 763,446
2007-11-29 Rosenblatt Alice F (EVP and Chief Actuary) Sale 2,000 83.92 167,830
2007-11-28 Nussbaum Samuel R Md (EVP & Chief Medical Officer) Sale 10,000 84.00 840,000
2007-11-27 Glasscock Larry C (Director) Sale 31,111 82.24 2,558,661
2007-11-27 Glasscock Larry C (Director) Option Ex 31,111 35.85 1,115,329
2007-11-14 Glasscock Larry C (Director) Sale 31,111 81.40 2,532,528
2007-11-14 Glasscock Larry C (Director) Option Ex 31,111 35.85 1,115,329
2007-11-13 Rosenblatt Alice F (EVP and Chief Actuary) Sale 2,000 81.09 162,180
2007-11-08 Watts John S Jr (EVP) Sale 83,333 78.56 6,546,640
2007-11-08 Watts John S Jr (EVP) Option Ex 83,333 63.36 5,279,978
2007-11-05 Goulet Kenneth R (Pres & CEO Comm and EVP) Sale 3,811 78.70 299,944
2007-11-05 Watts John S Jr (EVP) Sale 88,378 78.72 6,957,558
2007-11-05 Watts John S Jr (EVP) Option Ex 90,814 41.03 3,726,098
2007-11-02 Burke Sheila P (Director) Sale 1,600 77.90 124,640
2007-11-01 Rosenblatt Alice F (EVP and Chief Actuary) Sale 1,200 78.84 94,605
2007-10-29 Brown Randal L (EVP & Chief HR Officer) Sale 106,939 79.18 8,467,109
2007-10-29 Brown Randal L (EVP & Chief HR Officer) Option Ex 82,000 47.80 3,919,272
2007-10-23 Glasscock Larry C (Director) Sale 31,111 78.50 2,442,275
2007-10-23 Glasscock Larry C (Director) Option Ex 31,111 35.85 1,115,329
2007-10-17 Rosenblatt Alice F (EVP and Chief Actuary) Sale 1,200 78.82 94,582
2007-10-11 Glasscock Larry C (Director) Sale 31,111 80.14 2,493,266
2007-10-11 Glasscock Larry C (Director) Option Ex 31,111 35.85 1,115,329
2007-10-02 Rosenblatt Alice F (EVP and Chief Actuary) Sale 2,400 77.31 185,536
2007-09-26 Glasscock Larry C (Director) Sale 31,111 79.83 2,483,591
2007-09-26 Glasscock Larry C (Director) Option Ex 31,111 35.85 1,115,329
2007-09-19 Rosenblatt Alice F (EVP and Chief Actuary) Sale 2,000 80.14 160,278
2007-09-12 Baker Lenox D Jr Md (Director) Sale 23,333 79.76 1,861,040
2007-09-12 Baker Lenox D Jr Md (Director) Option Ex 23,333 35.15 820,154
2007-09-11 Glasscock Larry C (Director) Sale 31,111 79.06 2,459,573
2007-09-11 Glasscock Larry C (Director) Option Ex 31,111 35.85 1,115,329
2007-09-06 Rosenblatt Alice F (EVP and Chief Actuary) Sale 2,000 80.02 160,040
2007-08-31 Herman Joan E (President & CEO of 4SB and EVP) Sale 9,310 80.25 747,174
2007-08-23 Rosenblatt Alice F (EVP and Chief Actuary) Sale 1,200 77.35 92,823
2007-08-23 Glasscock Larry C (Director) Sale 31,111 77.20 2,401,769
2007-08-23 Glasscock Larry C (Director) Option Ex 31,111 35.85 1,115,329
2007-08-10 Rosenblatt Alice F (EVP and Chief Actuary) Sale 1,200 75.30 90,360
2007-08-08 Glasscock Larry C (Director) Sale 31,111 76.58 2,378,296
2007-08-08 Glasscock Larry C (Director) Option Ex 31,111 35.89 1,116,573
2007-07-27 Rosenblatt Alice F (EVP and Chief Actuary) Sale 1,200 77.11 92,527
2007-07-24 Glasscock Larry C (Director) Sale 31,111 81.88 2,547,430
2007-07-24 Glasscock Larry C (Director) Option Ex 31,111 35.93 1,117,818
2007-07-11 Glasscock Larry C (Director) Sale 31,111 80.37 2,500,422
2007-07-11 Glasscock Larry C (Director) Option Ex 31,111 35.93 1,117,818
2007-07-10 Rosenblatt Alice F (EVP and Chief Actuary) Sale 2,000 81.17 162,330
2007-06-29 Rosenblatt Alice F (EVP and Chief Actuary) Sale 2,000 79.84 159,690
2007-06-25 Glasscock Larry C (Director) Sale 31,111 79.66 2,478,302
2007-06-25 Glasscock Larry C (Director) Option Ex 31,111 35.93 1,117,818
2007-06-14 Rosenblatt Alice F (EVP and Chief Actuary) Sale 2,000 81.25 162,502
2007-06-12 Glasscock Larry C (Director) Sale 31,111 81.28 2,528,826
2007-06-12 Glasscock Larry C (Director) Option Ex 31,111 35.93 1,117,818
2007-05-23 Glasscock Larry C (Chairman, President & CEO) Sale 31,111 84.34 2,623,777
2007-05-23 Glasscock Larry C (Chairman, President & CEO) Option Ex 31,111 35.93 1,117,818
2007-05-22 Dorr Marjorie W (EVP) Sale 60,556 84.50 5,116,982
2007-05-22 Dorr Marjorie W (EVP) Option Ex 60,556 61.38 3,716,685
2007-05-17 Bayh Susan B (Director) Sale 3,334 84.97 283,273
2007-05-17 Bayh Susan B (Director) Option Ex 3,334 44.18 147,296
2007-05-16 Herman Joan E (President & CEO of 4SB and EVP) Sale 15,048 84.00 1,264,032
2007-05-16 Herman Joan E (President & CEO of 4SB and EVP) Option Ex 15,048 61.03 918,379
2007-05-15 Herman Joan E (President & CEO of 4SB and EVP) Sale 4,800 83.56 401,088
2007-05-15 Herman Joan E (President & CEO of 4SB and EVP) Option Ex 4,800 61.03 292,944
2007-05-15 Boxer Mark L (Pres & CEO of OT&GS and EVP) Sale 55,686 83.96 4,675,563
2007-05-15 Boxer Mark L (Pres & CEO of OT&GS and EVP) Option Ex 51,110 69.97 3,576,422
2007-05-08 Ward Jackie M (Director) Sale 11,298 81.98 926,266
2007-05-04 Riegle Donald W Jr (Director) Sale 5,000 81.48 407,400
2007-05-04 Riegle Donald W Jr (Director) Option Ex 5,000 35.85 179,250
2007-05-01 Herman Joan E (President & CEO of 4SB and EVP) Sale 6,474 80.00 517,920
2007-05-01 Pisano Jane G (Director) Sale 7,500 80.00 600,000
2007-04-27 Hill Julie A (Director) Sale 46,454 79.08 3,673,582
2007-04-27 Hill Julie A (Director) Option Ex 33,216 22.78 756,793
2007-04-18 Watts John S Jr (Grp VP, Pres & CEO CCB & EVP) Sale 15,000 85.00 1,275,000
2007-04-18 Watts John S Jr (Grp VP, Pres & CEO CCB & EVP) Option Ex 15,000 41.03 615,450
2007-03-12 Herman Joan E (President & CEO of 4SB) Option Ex 2,436 41.03 99,949
2007-03-02 Hill Julie A (Director) Sale 12,412 80.69 1,001,487
2007-03-02 Hill Julie A (Director) Option Ex 12,412 34.23 424,862
2007-02-09 Lewis Randall J (SVP) Sale 8,872 81.01 718,720
2007-02-07 Herman Joan E (President & CEO of 4SB) Sale 29,308 81.75 2,396,016
2007-02-07 Nussbaum Samuel R Md (EVP) Sale 10,000 80.90 809,000
2007-02-02 Dorr Marjorie W (EVP) Sale 38,526 78.80 3,035,656
2007-02-02 Dorr Marjorie W (EVP) Option Ex 23,889 69.97 1,671,632
 1   2   3   4 

Insider trading activities including stock purchases, stock sales, and option exercises of ANTM listed in the above tables cannot be completely guaranteed as to their accuracy. For more insider trading information of Anthem, Inc. (symbol ANTM, CIK number 1156039) see the Securities and Exchange Commission (SEC) website.